Airfield :
LOGIN :

Register | Disclaimer

   EN    FR    IT 

 










Legend :    VFR   Marginal VFR   IFR   Intensive IFR   Very Intensive IFR
Visi :
Ceiling :
>= 8 km
>= 3000ft
5 to 8 km
1000 to 3000 ft
1500m to 5 km
500 to 1000 ft
800 to 1500m
200 to 500 ft
< 800m
< 200 ft
Symbols :   Thunderstorms  Fog  Heavy snow  Heavy precipitations  Wind > 20 kt
SIGMETs :     Misc.  Thunderstorms  Icing  Turbulence  Mountain Waves  Volcanic Ashes







- Airport Elevation : 755 ft
- IATA code : DRS


EDDC - Dresden Klotzsche

CURRENT METAR :
  • 221220Z 27014KT 230V300 9999 BKN025 13/06 Q1018 TEMPO 27015G25KT

EXPIRED METARs :
  • 221150Z 25014G25KT 210V280 9999 SCT025 SCT043 12/06 Q1019 NOSIG
  • 221120Z 27010KT 230V320 9999 BKN025 12/06 Q1019 TEMPO 27015G25KT
  • 221050Z 26013KT 230V320 9999 BKN022 12/07 Q1018 TEMPO 27015G25KT
  • 221020Z 28013KT 240V310 9999 -RA BKN022 12/07 Q1018 TEMPO 27015G25KT
  • 220950Z 28009KT 230V320 9999 -RA FEW019 BKN040 BKN057 12/07 Q1018 TEMPO 27015G25KT

TAF TAF EDDC
Valid from the 22 at 12:00 until the 23 at 12:00 UTC


221100Z 2212/2312 28013KT 9999 BKN025
TEMPO 2212/2220 28015G25KT SHRA BKN020CB
PROB30
TEMPO 2212/2218 28020G30KT TSRA
No reported NOTAMs for that airfield.



MET'MAP, your aeronautical weather chart ! - Copyright ORBIFLY December 2007 - Disclaimer

ORBIFLY MET'MAP TEAM :

Programming & Development : Alexandra Zaïnal
Concept & Development : Baudouin d'Aumeries
Co-Development & Prog : Marc-Olivier Méhu
Technical & hardware support : Manuel Goepfert

Contact : metmap@orbifly.com




SOURCES & CREDITS :

   NOAA